Time;durP1;ratioP1;P1;durP2;ratioP2;P2;SDS_P1;SDS_P2;PMS_P1;PMS_P2;Temp;Humidity;BMP_temperature;BMP_pressure;BME280_temperature;BME280_humidity;BME280_pressure;Samples;Min_cycle;Max_cycle;Signal;HPM_P1;HPM_P2
2022/07/21 04:00:50;;;;;;;37.78;27.00;;;18.90;99.90;;;;;;5894826;22;20502;-71
2022/07/21 04:03:16;;;;;;;42.30;30.60;;;18.90;99.90;;;;;;5055566;28;20041;-72
2022/07/21 04:05:43;;;;;;;44.60;30.77;;;19.00;99.90;;;;;;5054964;28;20048;-72
2022/07/21 04:08:11;;;;;;;48.55;33.65;;;19.10;99.90;;;;;;5056990;28;20116;-72
2022/07/21 04:10:39;;;;;;;43.85;31.10;;;19.00;99.90;;;;;;5055198;28;20120;-72
2022/07/21 04:13:07;;;;;;;40.25;29.17;;;19.00;99.90;;;;;;5056851;28;20037;-71
2022/07/21 04:15:33;;;;;;;45.33;30.77;;;19.00;99.90;;;;;;5057123;28;20029;-71
2022/07/21 04:17:59;;;;;;;37.85;28.08;;;19.00;99.90;;;;;;5056678;28;20758;-71
2022/07/21 04:20:24;;;;;;;33.28;27.30;;;19.00;99.90;;;;;;5055409;28;20029;-71
2022/07/21 04:22:51;;;;;;;39.88;30.20;;;19.00;99.90;;;;;;5056874;28;20560;-71
2022/07/21 04:25:18;;;;;;;39.67;28.63;;;19.10;99.90;;;;;;5056599;28;20119;-71
2022/07/21 04:27:45;;;;;;;32.95;26.73;;;19.10;99.90;;;;;;5055140;28;20038;-71
2022/07/21 04:30:14;;;;;;;30.63;25.00;;;19.20;99.90;;;;;;5056153;28;20034;-71
2022/07/21 04:32:39;;;;;;;35.72;28.52;;;19.10;99.90;;;;;;5056588;28;20029;-71
2022/07/21 04:35:07;;;;;;;41.30;28.98;;;19.10;99.90;;;;;;5056601;28;20034;-71
2022/07/21 04:37:33;;;;;;;36.33;28.55;;;19.20;99.90;;;;;;5056504;28;20128;-71
2022/07/21 04:39:58;;;;;;;38.42;29.42;;;19.20;99.90;;;;;;5056350;28;20112;-71
2022/07/21 04:42:24;;;;;;;38.80;27.80;;;19.20;99.90;;;;;;5056134;28;20521;-71
2022/07/21 04:44:49;;;;;;;32.97;27.05;;;19.20;99.90;;;;;;5054748;28;20542;-71
2022/07/21 04:47:15;;;;;;;34.85;27.08;;;19.30;99.90;;;;;;5056343;28;20034;-71
2022/07/21 04:49:41;;;;;;;37.50;29.70;;;19.30;99.90;;;;;;5054970;28;20035;-71
2022/07/21 04:52:06;;;;;;;40.13;30.13;;;19.30;99.90;;;;;;5056203;28;20088;-71
2022/07/21 04:54:32;;;;;;;33.90;28.02;;;19.30;99.90;;;;;;5056119;28;20052;-72
2022/07/21 04:56:59;;;;;;;33.90;27.92;;;19.30;99.90;;;;;;5056191;28;20037;-71
2022/07/21 04:59:24;;;;;;;32.95;26.35;;;19.30;99.90;;;;;;5056260;28;20101;-71
2022/07/21 05:01:50;;;;;;;35.72;28.50;;;19.30;99.90;;;;;;5055610;28;20128;-72
2022/07/21 05:04:16;;;;;;;32.53;27.45;;;19.30;99.90;;;;;;5054947;28;20033;-73
2022/07/21 05:06:41;;;;;;;37.67;29.73;;;19.40;99.90;;;;;;5056838;28;20108;-72
2022/07/21 05:09:07;;;;;;;35.00;28.58;;;19.40;99.90;;;;;;5056297;28;20491;-72
2022/07/21 05:11:32;;;;;;;31.98;26.35;;;19.50;99.90;;;;;;5054626;28;20120;-72
2022/07/21 05:13:58;;;;;;;35.45;28.05;;;19.50;99.90;;;;;;5055773;28;20108;-72
2022/07/21 05:16:23;;;;;;;33.25;25.92;;;19.60;99.90;;;;;;5056066;28;20057;-72
2022/07/21 05:18:49;;;;;;;35.08;27.95;;;19.60;99.90;;;;;;5054367;28;20064;-72
2022/07/21 05:21:15;;;;;;;30.08;25.63;;;19.70;99.90;;;;;;5055808;28;20038;-72
2022/07/21 05:23:40;;;;;;;31.02;25.75;;;19.70;99.90;;;;;;5055986;28;20113;-71
2022/07/21 05:26:06;;;;;;;33.42;27.52;;;19.60;99.90;;;;;;5056424;28;20041;-73
2022/07/21 05:28:32;;;;;;;35.28;27.77;;;19.60;99.90;;;;;;5055679;28;20037;-72
2022/07/21 05:30:58;;;;;;;33.17;27.33;;;19.50;99.90;;;;;;5055584;28;20398;-72
2022/07/21 05:33:23;;;;;;;34.42;28.05;;;19.50;99.90;;;;;;5054263;28;20034;-69
2022/07/21 05:35:49;;;;;;;33.13;27.92;;;19.50;99.90;;;;;;5055505;28;20163;-68
2022/07/21 05:38:14;;;;;;;30.58;25.60;;;19.50;99.90;;;;;;5055398;28;20461;-72
2022/07/21 05:40:40;;;;;;;30.42;25.60;;;19.50;99.90;;;;;;5054716;28;20080;-71
2022/07/21 05:43:07;;;;;;;33.47;27.08;;;19.50;99.90;;;;;;5054101;28;20033;-73
2022/07/21 05:45:32;;;;;;;30.35;26.45;;;19.60;99.90;;;;;;5054042;28;20506;-71
2022/07/21 05:47:58;;;;;;;31.02;27.17;;;19.70;99.90;;;;;;5055259;28;20038;-75
2022/07/21 05:50:23;;;;;;;34.90;27.75;;;19.80;99.90;;;;;;5053643;28;20036;-72
2022/07/21 05:52:49;;;;;;;30.45;25.60;;;19.80;99.90;;;;;;5055549;28;20055;-71
2022/07/21 05:55:15;;;;;;;32.42;27.35;;;19.90;99.90;;;;;;5055116;28;20438;-71
2022/07/21 05:57:41;;;;;;;27.45;24.02;;;20.10;99.90;;;;;;5055162;28;20037;-71
2022/07/21 06:00:07;;;;;;;27.95;24.13;;;20.10;99.90;;;;;;5055296;28;20552;-71
2022/07/21 06:02:32;;;;;;;25.73;21.55;;;20.20;99.90;;;;;;5054625;28;20502;-71
2022/07/21 06:04:59;;;;;;;24.42;22.02;;;20.40;99.90;;;;;;5055285;28;20037;-71
2022/07/21 06:07:25;;;;;;;25.70;22.98;;;20.60;99.90;;;;;;5053630;28;20033;-71
2022/07/21 06:09:50;;;;;;;26.58;22.00;;;20.90;99.90;;;;;;5055290;28;20586;-71
2022/07/21 06:12:16;;;;;;;22.80;20.40;;;20.70;99.90;;;;;;5054976;28;20068;-71
2022/07/21 06:14:42;;;;;;;20.42;18.25;;;20.70;99.90;;;;;;5054991;28;20057;-71
2022/07/21 06:17:07;;;;;;;21.80;19.67;;;20.60;99.90;;;;;;5054884;28;20061;-71
2022/07/21 06:19:33;;;;;;;22.63;20.35;;;20.50;99.90;;;;;;5054903;28;20036;-71
2022/07/21 06:21:59;;;;;;;21.23;19.13;;;20.40;99.90;;;;;;5054398;28;20514;-72
2022/07/21 06:24:26;;;;;;;24.20;20.95;;;20.50;99.90;;;;;;5054536;28;20083;-72
2022/07/21 06:26:52;;;;;;;20.98;18.60;;;20.90;99.90;;;;;;5054830;28;20480;-73
2022/07/21 06:29:18;;;;;;;20.63;18.45;;;21.20;99.90;;;;;;5053373;28;20045;-72
2022/07/21 06:31:43;;;;;;;19.20;17.13;;;21.30;99.90;;;;;;5054523;28;20033;-72
2022/07/21 06:34:09;;;;;;;18.30;16.35;;;21.20;99.90;;;;;;5054216;28;20030;-72
2022/07/21 06:36:34;;;;;;;20.52;18.02;;;21.20;99.90;;;;;;5054233;28;20049;-73
2022/07/21 06:39:00;;;;;;;17.55;15.88;;;21.40;99.90;;;;;;5054701;28;20479;-72
2022/07/21 06:41:25;;;;;;;16.00;14.35;;;21.50;99.90;;;;;;5054612;28;20075;-72
2022/07/21 06:43:51;;;;;;;17.35;15.50;;;21.70;99.90;;;;;;5054753;28;20601;-72
2022/07/21 06:46:16;;;;;;;17.95;15.93;;;21.60;99.90;;;;;;5054195;28;20514;-71
2022/07/21 06:48:42;;;;;;;17.40;15.60;;;21.40;99.90;;;;;;5054722;28;20383;-71
2022/07/21 06:51:07;;;;;;;19.92;17.27;;;21.20;99.90;;;;;;5054145;28;20487;-72
2022/07/21 06:53:33;;;;;;;18.88;17.05;;;21.10;99.90;;;;;;5054079;28;20403;-71
2022/07/21 06:56:02;;;;;;;21.02;17.45;;;21.00;99.90;;;;;;5054083;28;20036;-71
2022/07/21 06:58:27;;;;;;;20.27;17.85;;;21.00;99.90;;;;;;5054376;28;20072;-71
2022/07/21 07:00:53;;;;;;;19.88;17.70;;;21.00;99.90;;;;;;5052298;28;20038;-71
2022/07/21 07:03:19;;;;;;;20.02;17.50;;;21.00;99.90;;;;;;5054139;28;20410;-72
2022/07/21 07:05:52;;;;;;;17.60;15.77;;;21.00;99.90;;;;;;5047150;28;20030;-74
2022/07/21 07:08:18;;;;;;;23.55;17.63;;;21.00;99.90;;;;;;5033756;28;20048;-72
2022/07/21 07:10:46;;;;;;;18.63;16.77;;;21.10;99.90;;;;;;5054084;28;20026;-71
2022/07/21 07:13:13;;;;;;;18.65;16.85;;;21.20;99.90;;;;;;5054257;28;20037;-71
2022/07/21 07:15:39;;;;;;;16.73;15.05;;;21.30;99.90;;;;;;5051950;28;20033;-71
2022/07/21 07:18:05;;;;;;;19.02;14.48;;;21.40;99.90;;;;;;5052400;28;20384;-71
2022/07/21 07:20:31;;;;;;;17.27;14.68;;;21.70;99.90;;;;;;5053689;28;20909;-71
2022/07/21 07:22:57;;;;;;;17.77;13.60;;;21.90;99.90;;;;;;5054218;28;20117;-71
2022/07/21 07:25:22;;;;;;;15.32;13.65;;;22.00;99.90;;;;;;5052251;28;20555;-71
2022/07/21 07:27:49;;;;;;;14.55;12.90;;;22.20;99.90;;;;;;5053553;28;20044;-71
2022/07/21 07:30:16;;;;;;;14.27;12.88;;;22.20;99.90;;;;;;5052780;28;20025;-71
2022/07/21 07:32:42;;;;;;;15.82;13.02;;;22.20;99.90;;;;;;5053528;28;20040;-71
2022/07/21 07:35:10;;;;;;;13.48;12.05;;;22.10;99.90;;;;;;5053587;28;20036;-71
2022/07/21 07:37:37;;;;;;;13.00;11.70;;;22.30;99.90;;;;;;5052950;28;20049;-71
2022/07/21 07:40:05;;;;;;;13.57;12.18;;;22.40;99.90;;;;;;5034691;28;20033;-71
2022/07/21 07:42:30;;;;;;;15.00;13.20;;;22.50;99.90;;;;;;5033484;28;20057;-71
2022/07/21 07:44:56;;;;;;;14.75;12.80;;;22.70;99.90;;;;;;5033042;28;20042;-71
2022/07/21 07:47:21;;;;;;;17.73;13.13;;;22.90;99.90;;;;;;5037823;28;20091;-70
2022/07/21 07:49:50;;;;;;;13.65;12.35;;;23.30;99.90;;;;;;5048883;28;20061;-72
2022/07/21 07:52:16;;;;;;;13.95;12.55;;;23.70;99.90;;;;;;5032139;28;20097;-70
2022/07/21 07:54:41;;;;;;;13.77;12.02;;;23.70;99.90;;;;;;5033893;28;20041;-71
2022/07/21 07:57:07;;;;;;;13.48;12.07;;;23.70;99.90;;;;;;5033756;28;20507;-71
2022/07/21 07:59:32;;;;;;;12.60;10.90;;;23.90;99.90;;;;;;5033757;28;20033;-74
2022/07/21 08:01:58;;;;;;;12.55;9.85;;;24.60;99.90;;;;;;5033588;28;20065;-75
2022/07/21 08:04:24;;;;;;;10.70;9.48;;;24.80;99.90;;;;;;5034121;28;20395;-74
2022/07/21 08:06:49;;;;;;;10.70;9.27;;;24.50;99.90;;;;;;5036532;28;20038;-74
2022/07/21 08:09:15;;;;;;;11.00;9.98;;;23.80;99.90;;;;;;5036889;28;20484;-74
2022/07/21 08:11:40;;;;;;;11.98;10.75;;;23.30;99.90;;;;;;5036573;28;20034;-74
2022/07/21 08:14:06;;;;;;;12.20;10.80;;;23.00;99.90;;;;;;5036893;28;20057;-74
2022/07/21 08:16:33;;;;;;;12.25;10.98;;;22.90;99.90;;;;;;5036455;28;20923;-76
2022/07/21 08:18:59;;;;;;;13.02;9.68;;;22.80;99.90;;;;;;5036736;28;20041;-73
2022/07/21 08:21:30;;;;;;;11.55;10.27;;;23.00;99.90;;;;;;5035416;28;20034;-71
2022/07/21 08:23:55;;;;;;;16.45;10.50;;;23.00;99.90;;;;;;5036862;28;20048;-71
2022/07/21 08:26:21;;;;;;;12.25;9.68;;;23.10;99.90;;;;;;5036667;28;20033;-71
2022/07/21 08:28:46;;;;;;;11.85;10.65;;;22.90;99.90;;;;;;5036861;28;20068;-71
2022/07/21 08:31:12;;;;;;;12.13;9.98;;;22.80;99.90;;;;;;5036228;28;20054;-74
2022/07/21 08:33:37;;;;;;;11.95;10.70;;;23.00;99.90;;;;;;5036848;28;20105;-72
2022/07/21 08:36:03;;;;;;;11.60;9.70;;;23.60;99.90;;;;;;5036038;28;22069;-71
2022/07/21 08:38:29;;;;;;;13.95;9.30;;;24.00;99.90;;;;;;5037014;28;20042;-71
2022/07/21 08:40:55;;;;;;;10.48;9.43;;;24.30;99.90;;;;;;5034996;28;20038;-71
2022/07/21 08:43:21;;;;;;;11.15;9.35;;;24.20;99.90;;;;;;5036657;28;20038;-71
2022/07/21 08:45:47;;;;;;;12.13;8.93;;;24.00;99.90;;;;;;5036249;28;20040;-71
2022/07/21 08:48:17;;;;;;;9.77;8.68;;;24.30;99.90;;;;;;5036532;28;20042;-71
2022/07/21 08:50:43;;;;;;;11.32;8.48;;;24.70;99.90;;;;;;5034871;28;20040;-72
2022/07/21 08:53:09;;;;;;;9.43;8.00;;;25.20;99.90;;;;;;5036436;28;20155;-71
2022/07/21 08:55:39;;;;;;;9.15;8.18;;;25.60;99.90;;;;;;5036354;28;20044;-72
2022/07/21 08:58:11;;;;;;;11.93;8.52;;;25.80;99.90;;;;;;5034839;28;20045;-72
2022/07/21 09:00:39;;;;;;;8.48;7.53;;;26.40;99.90;;;;;;5034259;28;20030;-72
2022/07/21 09:03:11;;;;;;;7.97;7.18;;;26.70;99.90;;;;;;5036303;28;20041;-75
2022/07/21 09:05:57;;;;;;;8.38;7.50;;;26.70;99.90;;;;;;5036908;28;20113;-74
2022/07/21 09:08:33;;;;;;;12.77;8.68;;;26.20;99.90;;;;;;5036612;28;20104;-74
2022/07/21 09:11:12;;;;;;;10.63;8.48;;;25.10;99.90;;;;;;5035906;28;20480;-74
2022/07/21 09:13:38;;;;;;;9.07;8.07;;;24.70;99.90;;;;;;5036280;28;20038;-74
2022/07/21 09:16:04;;;;;;;10.35;7.63;;;24.90;99.90;;;;;;5036114;28;20041;-76
2022/07/21 09:18:30;;;;;;;9.90;7.95;;;25.20;99.90;;;;;;5036210;28;20096;-74
2022/07/21 09:21:00;;;;;;;10.00;8.07;;;25.70;99.90;;;;;;5038044;28;20037;-74
2022/07/21 09:23:26;;;;;;;10.73;7.93;;;25.80;99.90;;;;;;5035819;28;20038;-73
2022/07/21 09:25:54;;;;;;;10.13;7.65;;;25.90;99.90;;;;;;5034330;28;20481;-73
2022/07/21 09:28:26;;;;;;;10.35;7.78;;;25.70;99.90;;;;;;5035877;28;20590;-73
2022/07/21 09:30:57;;;;;;;8.57;7.28;;;25.70;99.90;;;;;;5034197;28;20446;-74
2022/07/21 09:33:26;;;;;;;12.43;6.90;;;25.80;99.80;;;;;;5035784;28;20069;-74
2022/07/21 09:36:08;;;;;;;8.27;6.53;;;26.00;98.10;;;;;;5035236;28;20275;-73
2022/07/21 09:38:37;;;;;;;8.60;6.63;;;26.20;98.30;;;;;;5035709;28;20533;-74
2022/07/21 09:41:13;;;;;;;8.32;7.07;;;26.40;97.10;;;;;;5035515;28;20033;-74
2022/07/21 09:43:43;;;;;;;11.07;6.38;;;26.70;99.70;;;;;;5035997;28;20089;-75
2022/07/21 09:46:17;;;;;;;7.43;6.20;;;27.00;96.50;;;;;;5035206;28;20413;-74
2022/07/21 09:48:45;;;;;;;5.43;4.72;;;27.80;94.10;;;;;;5035113;28;20038;-71
2022/07/21 09:51:22;;;;;;;5.90;5.35;;;28.50;92.30;;;;;;5034839;28;20033;-71
2022/07/21 09:53:58;;;;;;;6.03;5.43;;;28.90;90.90;;;;;;5035438;28;20491;-71
2022/07/21 09:56:25;;;;;;;5.47;4.95;;;28.80;90.60;;;;;;5035446;28;20040;-72
2022/07/21 09:58:53;;;;;;;6.97;5.45;;;28.10;90.90;;;;;;5035074;28;20112;-71
2022/07/21 10:01:20;;;;;;;6.20;5.30;;;27.30;93.00;;;;;;5034932;28;20169;-71
2022/07/21 10:03:48;;;;;;;6.15;5.05;;;26.90;92.20;;;;;;5035370;28;20038;-71
2022/07/21 10:06:16;;;;;;;7.55;4.78;;;27.00;92.60;;;;;;5035017;28;20073;-71
2022/07/21 10:08:42;;;;;;;6.47;5.05;;;27.30;90.90;;;;;;5035384;28;20492;-72
2022/07/21 10:11:08;;;;;;;4.93;4.43;;;27.50;88.50;;;;;;5035070;28;20480;-72
2022/07/21 10:13:34;;;;;;;5.53;4.45;;;27.40;90.00;;;;;;5043019;28;20034;-71
2022/07/21 10:16:01;;;;;;;4.63;3.95;;;27.50;91.30;;;;;;5045984;28;20587;-71
2022/07/21 10:18:30;;;;;;;5.93;4.20;;;27.90;84.50;;;;;;5045249;28;20065;-71
2022/07/21 10:21:04;;;;;;;5.13;3.80;;;28.20;85.20;;;;;;5045495;28;20030;-72
2022/07/21 10:23:37;;;;;;;5.20;4.55;;;28.10;84.00;;;;;;5043480;28;20113;-72
2022/07/21 10:26:05;;;;;;;5.47;4.22;;;27.70;84.90;;;;;;5044715;28;20105;-71
2022/07/21 10:28:31;;;;;;;8.15;4.18;;;27.10;85.90;;;;;;5042260;28;20117;-72
2022/07/21 10:30:58;;;;;;;7.10;4.20;;;26.90;86.90;;;;;;5042937;28;20034;-72
2022/07/21 10:33:42;;;;;;;7.15;4.28;;;27.00;87.30;;;;;;5035159;28;20040;-72
2022/07/21 10:36:08;;;;;;;5.72;4.00;;;27.60;90.20;;;;;;5034608;28;20534;-71
2022/07/21 10:38:35;;;;;;;5.05;4.25;;;27.80;83.40;;;;;;5034551;28;20050;-72
2022/07/21 10:41:03;;;;;;;6.68;4.60;;;28.10;87.40;;;;;;5034929;28;20101;-72
2022/07/21 10:43:29;;;;;;;4.65;4.18;;;28.10;83.80;;;;;;5035006;28;20030;-72
2022/07/21 10:45:55;;;;;;;5.70;4.68;;;28.20;85.80;;;;;;5034624;28;20030;-71
2022/07/21 10:48:41;;;;;;;5.05;4.50;;;28.00;82.20;;;;;;5034839;28;20069;-71
2022/07/21 10:51:10;;;;;;;7.53;4.90;;;28.30;82.10;;;;;;5034588;28;20061;-74
2022/07/21 10:53:36;;;;;;;5.60;4.95;;;28.80;81.80;;;;;;5034770;28;20034;-74
2022/07/21 10:56:02;;;;;;;6.40;4.97;;;28.90;79.00;;;;;;5034574;28;20110;-74
2022/07/21 10:58:30;;;;;;;42.45;16.20;;;28.80;79.50;;;;;;5034609;28;20041;-72
2022/07/21 11:01:01;;;;;;;14.60;8.50;;;29.40;79.70;;;;;;5033947;28;20117;-72
2022/07/21 11:03:30;;;;;;;13.10;7.95;;;29.20;77.30;;;;;;5034195;28;20041;-72
2022/07/21 11:06:14;;;;;;;7.75;5.80;;;29.00;77.50;;;;;;5034350;28;20030;-72
2022/07/21 11:08:43;;;;;;;5.40;4.28;;;29.30;76.40;;;;;;5034423;28;20045;-72
2022/07/21 11:11:26;;;;;;;5.72;4.85;;;29.50;76.00;;;;;;5034165;28;20026;-72
2022/07/21 11:14:46;;;;;;;5.40;4.45;;;29.60;74.00;;;;;;5035029;28;20038;-72
2022/07/21 11:17:44;;;;;;;5.25;4.70;;;29.90;74.20;;;;;;5041830;28;20432;-72
2022/07/21 11:20:14;;;;;;;9.13;4.60;;;30.20;70.70;;;;;;5032105;28;20180;-72
2022/07/21 11:22:39;;;;;;;5.43;4.93;;;30.40;70.40;;;;;;5034729;28;20033;-76
2022/07/21 11:25:06;;;;;;;5.07;4.40;;;30.50;67.80;;;;;;5034124;28;20034;-75
2022/07/21 11:27:34;;;;;;;5.40;4.88;;;30.90;71.20;;;;;;5034337;28;20080;-71
2022/07/21 11:30:05;;;;;;;5.63;4.45;;;31.30;68.50;;;;;;5034033;28;20034;-71
2022/07/21 11:32:31;;;;;;;5.60;5.07;;;31.50;70.10;;;;;;5032404;28;20059;-71
2022/07/21 11:35:03;;;;;;;4.70;4.18;;;31.90;66.00;;;;;;5032524;28;20509;-71
2022/07/21 11:37:34;;;;;;;5.00;4.50;;;31.30;67.00;;;;;;5033682;28;20526;-71
2022/07/21 11:40:01;;;;;;;5.30;4.90;;;30.90;67.50;;;;;;5035718;28;20041;-73
2022/07/21 11:42:27;;;;;;;7.38;4.60;;;30.60;68.70;;;;;;5037605;28;20526;-72
2022/07/21 11:44:53;;;;;;;7.88;4.80;;;30.20;67.90;;;;;;5037335;28;20034;-71
2022/07/21 11:47:25;;;;;;;5.65;4.93;;;30.00;71.60;;;;;;5037600;28;20038;-71
2022/07/21 11:49:55;;;;;;;6.15;4.78;;;30.40;68.80;;;;;;5037769;28;20072;-70
2022/07/21 11:52:32;;;;;;;6.20;5.03;;;30.10;68.80;;;;;;5037488;28;20041;-71
2022/07/21 11:55:00;;;;;;;7.07;5.10;;;29.80;70.70;;;;;;5037182;28;20097;-71
2022/07/21 11:57:27;;;;;;;5.25;4.63;;;29.40;73.50;;;;;;5037100;28;20042;-71
2022/07/21 11:59:55;;;;;;;5.28;4.60;;;29.40;73.50;;;;;;5037347;28;20066;-71
2022/07/21 12:02:25;;;;;;;5.28;4.80;;;29.70;70.70;;;;;;5037238;28;20038;-72
2022/07/21 12:04:59;;;;;;;4.50;4.10;;;29.70;70.50;;;;;;5037126;28;20400;-71
2022/07/21 12:07:40;;;;;;;5.90;4.43;;;29.90;70.20;;;;;;5037140;28;20104;-72
2022/07/21 12:10:11;;;;;;;5.93;4.78;;;29.90;67.60;;;;;;5038238;28;20034;-71
2022/07/21 12:12:43;;;;;;;4.90;4.50;;;29.90;69.30;;;;;;5037404;28;20054;-72
2022/07/21 12:15:23;;;;;;;5.57;4.40;;;29.50;69.80;;;;;;5037110;28;20034;-72
2022/07/21 12:17:51;;;;;;;5.55;4.60;;;29.60;69.80;;;;;;5037299;28;20407;-72
2022/07/21 12:20:29;;;;;;;5.10;4.60;;;29.00;70.00;;;;;;5037449;28;20034;-72
2022/07/21 12:22:56;;;;;;;5.20;4.70;;;29.00;70.30;;;;;;5037156;28;20080;-72
2022/07/21 12:25:40;;;;;;;5.60;4.60;;;29.20;70.90;;;;;;5036710;28;20037;-71
2022/07/21 12:28:06;;;;;;;4.78;4.20;;;29.50;71.20;;;;;;5037026;28;20046;-71
2022/07/21 12:30:52;;;;;;;4.47;4.07;;;29.80;68.30;;;;;;5036851;28;20030;-71
2022/07/21 12:33:23;;;;;;;5.28;4.20;;;30.00;68.30;;;;;;5036459;28;20380;-71
2022/07/21 12:36:01;;;;;;;7.05;4.75;;;29.60;66.80;;;;;;5036671;28;20092;-71
2022/07/21 12:38:42;;;;;;;6.68;4.70;;;30.20;67.30;;;;;;5036505;28;20046;-71
2022/07/21 12:41:11;;;;;;;5.43;4.68;;;31.00;64.70;;;;;;5036340;28;20518;-72
2022/07/21 12:43:37;;;;;;;5.13;4.65;;;31.70;62.80;;;;;;5036476;28;20030;-72
2022/07/21 12:46:12;;;;;;;5.18;4.60;;;32.70;64.10;;;;;;5034944;28;20033;-72
2022/07/21 12:48:38;;;;;;;4.80;4.40;;;33.20;61.50;;;;;;5036535;28;20034;-71
2022/07/21 12:51:16;;;;;;;5.38;4.70;;;33.80;59.70;;;;;;5036145;28;20480;-72
2022/07/21 12:53:51;;;;;;;5.50;4.60;;;33.20;60.60;;;;;;5034928;28;20133;-71
2022/07/21 12:56:22;;;;;;;5.20;4.70;;;32.20;62.30;;;;;;5036463;28;20076;-72
2022/07/21 12:58:49;;;;;;;5.85;4.45;;;32.50;59.20;;;;;;5035941;28;20137;-72
2022/07/21 13:01:18;;;;;;;4.97;4.32;;;32.30;60.40;;;;;;5035839;28;20077;-72
2022/07/21 13:03:44;;;;;;;6.60;4.57;;;31.90;61.90;;;;;;5036170;28;20394;-72
2022/07/21 13:06:10;;;;;;;4.53;4.07;;;31.90;61.80;;;;;;5036037;28;20042;-72
2022/07/21 13:08:38;;;;;;;4.40;4.00;;;32.40;61.40;;;;;;5036444;28;20038;-72
2022/07/21 13:11:04;;;;;;;6.07;4.65;;;33.10;60.50;;;;;;5034673;28;20033;-72
2022/07/21 13:13:31;;;;;;;5.60;4.63;;;33.20;59.90;;;;;;5036382;28;20526;-72
2022/07/21 13:15:58;;;;;;;4.88;4.47;;;33.20;60.00;;;;;;5035980;28;20492;-73
2022/07/21 13:18:24;;;;;;;6.78;4.93;;;32.80;60.10;;;;;;5036061;28;20418;-73
2022/07/21 13:20:50;;;;;;;6.22;4.68;;;32.50;58.30;;;;;;5035779;28;20030;-73
2022/07/21 13:23:16;;;;;;;7.93;5.07;;;32.80;58.80;;;;;;5036074;28;20044;-73
2022/07/21 13:25:42;;;;;;;5.13;4.63;;;33.80;59.40;;;;;;5036076;28;20026;-74
2022/07/21 13:28:07;;;;;;;5.50;5.00;;;34.10;57.30;;;;;;5035922;28;20042;-73
2022/07/21 13:30:33;;;;;;;6.75;5.00;;;34.60;56.70;;;;;;5035787;28;20077;-74
2022/07/21 13:32:58;;;;;;;6.03;4.50;;;35.10;55.70;;;;;;5036206;28;20483;-74
2022/07/21 13:35:24;;;;;;;4.88;4.38;;;35.50;54.30;;;;;;5035582;28;20060;-73
2022/07/21 13:37:50;;;;;;;4.50;3.90;;;35.30;54.70;;;;;;5035629;28;20049;-75
2022/07/21 13:40:15;;;;;;;5.18;4.30;;;36.20;54.50;;;;;;5036086;28;20030;-74
2022/07/21 13:42:41;;;;;;;5.10;4.32;;;36.50;52.50;;;;;;5035829;28;20030;-74
2022/07/21 13:45:11;;;;;;;4.97;4.05;;;35.70;53.10;;;;;;5035793;28;20044;-73
2022/07/21 13:47:37;;;;;;;4.97;4.57;;;35.10;53.80;;;;;;5035351;28;20034;-73
2022/07/21 13:50:03;;;;;;;7.05;4.20;;;34.70;54.30;;;;;;5036859;28;20500;-73
2022/07/21 13:52:31;;;;;;;5.50;4.43;;;34.80;57.10;;;;;;5035814;28;20080;-75
2022/07/21 13:54:56;;;;;;;5.60;4.40;;;34.90;53.40;;;;;;5035277;28;20116;-74
2022/07/21 13:57:22;;;;;;;6.65;4.32;;;35.70;53.10;;;;;;5035363;28;20045;-74
2022/07/21 13:59:47;;;;;;;4.28;3.92;;;36.20;51.50;;;;;;5035850;28;20037;-74
2022/07/21 14:02:13;;;;;;;4.85;4.35;;;36.60;50.80;;;;;;5034427;28;20066;-79
2022/07/21 14:04:39;;;;;;;5.32;4.30;;;36.30;50.30;;;;;;5036041;28;20030;-74
2022/07/21 14:07:04;;;;;;;4.88;4.38;;;35.60;52.70;;;;;;5036124;28;20113;-75
2022/07/21 14:09:30;;;;;;;6.53;4.53;;;36.80;52.80;;;;;;5036136;28;20033;-75
2022/07/21 14:11:57;;;;;;;4.85;4.30;;;37.60;50.40;;;;;;5036141;28;20116;-75
2022/07/21 14:14:26;;;;;;;6.45;4.22;;;38.60;48.70;;;;;;5035689;28;20041;-75
2022/07/21 14:16:53;;;;;;;5.30;4.40;;;38.60;48.10;;;;;;5035142;28;20516;-73
2022/07/21 14:19:19;;;;;;;6.38;4.18;;;38.20;46.90;;;;;;5033655;28;20455;-74
2022/07/21 14:21:45;;;;;;;4.90;4.50;;;36.40;51.40;;;;;;5034828;28;20026;-73
2022/07/21 14:26:57;;;;;;;6.80;4.38;;;36.80;50.30;;;;;;5035538;28;20037;-74
2022/07/21 14:29:23;;;;;;;6.15;4.18;;;36.90;50.70;;;;;;5034861;28;20030;-73
2022/07/21 14:31:51;;;;;;;6.80;4.20;;;37.00;50.70;;;;;;5034029;28;20655;-72
2022/07/21 14:34:16;;;;;;;6.45;3.90;;;36.40;50.90;;;;;;5034868;28;20100;-74
2022/07/21 14:36:42;;;;;;;4.32;3.92;;;37.10;50.20;;;;;;5035117;28;20034;-73
2022/07/21 14:39:08;;;;;;;5.18;4.10;;;37.90;48.90;;;;;;5033361;28;20037;-74
2022/07/21 14:41:34;;;;;;;4.57;3.85;;;39.30;47.50;;;;;;5034661;28;20034;-73
2022/07/21 14:43:59;;;;;;;4.63;4.22;;;39.10;46.50;;;;;;5034973;28;20105;-74
2022/07/21 14:46:25;;;;;;;6.68;4.28;;;37.30;48.50;;;;;;5034785;28;20068;-73
2022/07/21 14:48:50;;;;;;;4.90;4.43;;;38.20;47.50;;;;;;5033557;28;20041;-73
2022/07/21 14:51:16;;;;;;;4.57;4.07;;;38.60;45.70;;;;;;5031188;28;20061;-73
2022/07/21 14:53:43;;;;;;;5.35;4.00;;;39.60;44.20;;;;;;5032851;28;20088;-73
2022/07/21 14:56:09;;;;;;;4.90;4.20;;;39.10;43.90;;;;;;5032260;28;20034;-73
2022/07/21 14:58:34;;;;;;;5.72;4.18;;;37.70;45.40;;;;;;5032569;28;20046;-76
2022/07/21 15:01:00;;;;;;;5.65;4.30;;;38.20;50.10;;;;;;5032948;28;20484;-74
2022/07/21 15:03:28;;;;;;;4.72;4.22;;;39.60;44.10;;;;;;5035238;28;20185;-73
2022/07/21 15:05:54;;;;;;;4.80;4.35;;;38.10;45.30;;;;;;5034373;28;20037;-74
2022/07/21 15:08:19;;;;;;;5.78;4.60;;;36.90;46.10;;;;;;5032757;28;20479;-74
2022/07/21 15:10:46;;;;;;;5.38;4.25;;;35.90;49.60;;;;;;5033899;28;20391;-74
2022/07/21 15:13:12;;;;;;;6.78;4.60;;;35.60;50.30;;;;;;5035181;28;20466;-73
2022/07/21 15:15:40;;;;;;;5.40;4.15;;;36.50;48.70;;;;;;5036468;28;20038;-74
2022/07/21 15:18:06;;;;;;;4.63;4.22;;;35.90;49.60;;;;;;5037959;28;20034;-74
2022/07/21 15:20:32;;;;;;;4.88;4.18;;;34.80;50.40;;;;;;5037890;28;20109;-73
2022/07/21 15:22:58;;;;;;;4.68;4.25;;;34.90;51.40;;;;;;5037989;28;20143;-74
2022/07/21 15:25:23;;;;;;;5.28;3.90;;;37.40;49.10;;;;;;5037813;28;20037;-73
2022/07/21 15:27:49;;;;;;;4.65;4.20;;;37.80;49.10;;;;;;5037469;28;20044;-73
2022/07/21 15:30:15;;;;;;;4.53;4.13;;;39.20;45.30;;;;;;5037111;28;20049;-73
2022/07/21 15:32:41;;;;;;;5.93;4.40;;;40.60;44.50;;;;;;5036523;28;20061;-72
2022/07/21 15:35:08;;;;;;;5.20;4.00;;;41.10;42.30;;;;;;5037559;28;20045;-73
2022/07/21 15:37:34;;;;;;;5.70;4.43;;;41.70;41.60;;;;;;5037483;28;20033;-72
2022/07/21 15:39:59;;;;;;;6.88;4.57;;;41.10;41.20;;;;;;5037623;28;20455;-73
2022/07/21 15:42:25;;;;;;;4.85;4.38;;;39.10;43.20;;;;;;5037241;28;20066;-72
2022/07/21 15:44:51;;;;;;;5.50;4.30;;;39.10;44.40;;;;;;5035764;28;20089;-72
2022/07/21 15:47:17;;;;;;;4.65;3.90;;;40.40;44.60;;;;;;5037545;28;20534;-73
2022/07/21 15:49:42;;;;;;;4.97;4.47;;;41.10;43.50;;;;;;5037449;28;20045;-74
2022/07/21 15:52:08;;;;;;;6.07;4.25;;;41.70;39.70;;;;;;5037284;28;20128;-72
2022/07/21 15:54:37;;;;;;;5.03;4.22;;;42.00;39.20;;;;;;5037090;28;20034;-72
2022/07/21 15:57:02;;;;;;;4.72;4.05;;;42.60;39.50;;;;;;5036910;28;20046;-69
2022/07/21 15:59:34;;;;;;;4.25;3.85;;;42.90;40.00;;;;;;5037344;28;20698;-69
2022/07/21 16:02:02;;;;;;;4.75;4.28;;;42.80;40.40;;;;;;5036993;28;20034;-71
2022/07/21 16:04:27;;;;;;;4.57;4.00;;;42.80;38.00;;;;;;5036973;28;20061;-72
2022/07/21 16:06:53;;;;;;;4.47;4.15;;;42.10;42.70;;;;;;5037495;28;20042;-72
2022/07/21 16:09:19;;;;;;;4.35;3.95;;;42.10;39.40;;;;;;5037114;28;20034;-73
2022/07/21 16:11:48;;;;;;;4.68;4.25;;;40.90;40.40;;;;;;5036877;28;20038;-71
2022/07/21 16:14:14;;;;;;;5.38;4.53;;;41.00;42.20;;;;;;5037270;28;20513;-77
2022/07/21 16:16:39;;;;;;;4.60;4.20;;;41.70;40.50;;;;;;5037827;28;20038;-72
2022/07/21 16:19:05;;;;;;;4.65;4.20;;;42.20;39.60;;;;;;5036916;28;20073;-74
2022/07/21 16:21:31;;;;;;;6.97;4.38;;;41.90;39.50;;;;;;5037167;28;20038;-72
2022/07/21 16:23:56;;;;;;;4.68;4.28;;;41.80;41.50;;;;;;5037243;28;20042;-75
2022/07/21 16:26:22;;;;;;;5.20;4.70;;;42.30;39.30;;;;;;5038092;28;20037;-73
2022/07/21 16:28:47;;;;;;;4.53;4.13;;;41.60;39.60;;;;;;5035862;28;20062;-74
2022/07/21 16:31:13;;;;;;;5.03;4.43;;;39.80;42.50;;;;;;5036992;28;20038;-73
2022/07/21 16:33:38;;;;;;;5.30;4.80;;;37.60;45.00;;;;;;5036770;28;20034;-77
2022/07/21 16:36:04;;;;;;;4.68;4.28;;;36.20;46.50;;;;;;5036687;28;20029;-73
2022/07/21 16:38:30;;;;;;;4.93;4.53;;;36.50;47.20;;;;;;5039280;28;20037;-76
2022/07/21 16:40:56;;;;;;;5.43;4.43;;;36.60;47.50;;;;;;5036926;28;20286;-74
2022/07/21 16:43:21;;;;;;;7.03;4.72;;;36.30;46.80;;;;;;5037748;28;20073;-74